sensor_id;sensor_type;location;lat;lon;timestamp;temperature;humidity
39095;DHT22;24840;47.508;19.376;2022-12-18T00:01:18;-0.50;99.90
39095;DHT22;24840;47.508;19.376;2022-12-18T00:03:45;-0.40;99.90
39095;DHT22;24840;47.508;19.376;2022-12-18T00:06:11;-0.50;99.90
39095;DHT22;24840;47.508;19.376;2022-12-18T00:11:59;-0.30;99.90
39095;DHT22;24840;47.508;19.376;2022-12-18T00:14:25;-0.30;99.90
39095;DHT22;24840;47.508;19.376;2022-12-18T00:16:50;-0.20;99.90
39095;DHT22;24840;47.508;19.376;2022-12-18T00:19:16;-0.20;99.90
39095;DHT22;24840;47.508;19.376;2022-12-18T00:21:43;-0.20;99.90
39095;DHT22;24840;47.508;19.376;2022-12-18T00:24:10;-0.20;99.90
39095;DHT22;24840;47.508;19.376;2022-12-18T00:26:37;-0.30;99.90
39095;DHT22;24840;47.508;19.376;2022-12-18T00:29:10;-0.30;99.90
39095;DHT22;24840;47.508;19.376;2022-12-18T00:31:37;-0.30;99.90
39095;DHT22;24840;47.508;19.376;2022-12-18T00:34:03;-0.30;99.90
39095;DHT22;24840;47.508;19.376;2022-12-18T00:36:31;-0.30;99.90
39095;DHT22;24840;47.508;19.376;2022-12-18T00:38:59;-0.20;99.90
39095;DHT22;24840;47.508;19.376;2022-12-18T00:41:25;-0.10;99.90
39095;DHT22;24840;47.508;19.376;2022-12-18T00:44:12;-0.10;99.90
39095;DHT22;24840;47.508;19.376;2022-12-18T00:46:38;-0.20;99.90
39095;DHT22;24840;47.508;19.376;2022-12-18T00:49:04;-0.20;99.90
39095;DHT22;24840;47.508;19.376;2022-12-18T00:51:30;-0.20;99.90
39095;DHT22;24840;47.508;19.376;2022-12-18T00:53:55;-0.30;99.90
39095;DHT22;24840;47.508;19.376;2022-12-18T00:56:22;-0.30;99.90
39095;DHT22;24840;47.508;19.376;2022-12-18T00:58:48;-0.20;99.90
39095;DHT22;24840;47.508;19.376;2022-12-18T01:01:14;-0.20;99.90
39095;DHT22;24840;47.508;19.376;2022-12-18T01:03:40;-0.10;99.90
39095;DHT22;24840;47.508;19.376;2022-12-18T01:06:07;-0.10;99.90
39095;DHT22;24840;47.508;19.376;2022-12-18T01:08:34;-0.10;99.90
39095;DHT22;24840;47.508;19.376;2022-12-18T01:11:00;-0.10;99.90
39095;DHT22;24840;47.508;19.376;2022-12-18T01:13:27;-0.10;99.90
39095;DHT22;24840;47.508;19.376;2022-12-18T01:15:52;-0.10;99.90
39095;DHT22;24840;47.508;19.376;2022-12-18T01:18:18;-0.10;99.90
39095;DHT22;24840;47.508;19.376;2022-12-18T01:20:44;-0.10;99.90
39095;DHT22;24840;47.508;19.376;2022-12-18T01:23:10;-0.10;99.90
39095;DHT22;24840;47.508;19.376;2022-12-18T01:25:36;-0.20;99.90
39095;DHT22;24840;47.508;19.376;2022-12-18T01:28:02;-0.10;99.90
39095;DHT22;24840;47.508;19.376;2022-12-18T01:30:28;-0.10;99.90
39095;DHT22;24840;47.508;19.376;2022-12-18T01:32:54;-0.10;99.90
39095;DHT22;24840;47.508;19.376;2022-12-18T01:35:19;-0.10;99.90
39095;DHT22;24840;47.508;19.376;2022-12-18T01:37:45;-0.20;99.90
39095;DHT22;24840;47.508;19.376;2022-12-18T01:40:11;-0.20;99.90
39095;DHT22;24840;47.508;19.376;2022-12-18T01:42:37;-0.10;99.90
39095;DHT22;24840;47.508;19.376;2022-12-18T01:45:06;-0.10;99.90
39095;DHT22;24840;47.508;19.376;2022-12-18T01:47:43;-0.10;99.90
39095;DHT22;24840;47.508;19.376;2022-12-18T01:52:49;-0.10;99.90
39095;DHT22;24840;47.508;19.376;2022-12-18T01:55:18;-0.10;99.90
39095;DHT22;24840;47.508;19.376;2022-12-18T01:57:44;-0.10;99.90
39095;DHT22;24840;47.508;19.376;2022-12-18T02:00:15;-0.10;99.90
39095;DHT22;24840;47.508;19.376;2022-12-18T02:02:43;-0.20;99.90
39095;DHT22;24840;47.508;19.376;2022-12-18T02:05:12;-0.10;99.90
39095;DHT22;24840;47.508;19.376;2022-12-18T02:10:45;-0.20;99.90
39095;DHT22;24840;47.508;19.376;2022-12-18T02:13:27;-0.20;99.90
39095;DHT22;24840;47.508;19.376;2022-12-18T02:18:41;-0.20;99.90
39095;DHT22;24840;47.508;19.376;2022-12-18T02:21:36;-0.10;99.90
39095;DHT22;24840;47.508;19.376;2022-12-18T02:24:35;-0.20;99.90
39095;DHT22;24840;47.508;19.376;2022-12-18T02:27:06;-0.20;99.90
39095;DHT22;24840;47.508;19.376;2022-12-18T02:30:06;-0.20;99.90
39095;DHT22;24840;47.508;19.376;2022-12-18T02:32:39;-0.20;99.90
39095;DHT22;24840;47.508;19.376;2022-12-18T02:35:11;-0.20;99.90
39095;DHT22;24840;47.508;19.376;2022-12-18T02:37:39;-0.20;99.90
39095;DHT22;24840;47.508;19.376;2022-12-18T02:40:06;-0.20;99.90
39095;DHT22;24840;47.508;19.376;2022-12-18T02:42:33;-0.20;99.90
39095;DHT22;24840;47.508;19.376;2022-12-18T02:44:59;-0.10;99.90
39095;DHT22;24840;47.508;19.376;2022-12-18T02:47:29;-0.20;99.90
39095;DHT22;24840;47.508;19.376;2022-12-18T03:00:48;-0.30;99.90
39095;DHT22;24840;47.508;19.376;2022-12-18T03:03:22;-0.30;99.90
39095;DHT22;24840;47.508;19.376;2022-12-18T03:06:02;-0.30;99.90
39095;DHT22;24840;47.508;19.376;2022-12-18T03:08:34;-0.30;99.90
39095;DHT22;24840;47.508;19.376;2022-12-18T03:11:02;-0.30;99.90
39095;DHT22;24840;47.508;19.376;2022-12-18T03:13:49;-0.30;99.90
39095;DHT22;24840;47.508;19.376;2022-12-18T03:16:25;-0.40;99.90
39095;DHT22;24840;47.508;19.376;2022-12-18T03:18:56;-0.40;99.90
39095;DHT22;24840;47.508;19.376;2022-12-18T03:21:28;-0.40;99.90
39095;DHT22;24840;47.508;19.376;2022-12-18T03:23:55;-0.50;99.90
39095;DHT22;24840;47.508;19.376;2022-12-18T03:26:24;-0.50;99.90
39095;DHT22;24840;47.508;19.376;2022-12-18T03:29:02;-0.70;99.90
39095;DHT22;24840;47.508;19.376;2022-12-18T03:31:30;-0.70;99.90
39095;DHT22;24840;47.508;19.376;2022-12-18T03:34:04;-0.80;99.90
39095;DHT22;24840;47.508;19.376;2022-12-18T03:36:32;-0.80;99.90
39095;DHT22;24840;47.508;19.376;2022-12-18T03:38:58;-0.90;99.90
39095;DHT22;24840;47.508;19.376;2022-12-18T03:41:33;-0.90;99.90
39095;DHT22;24840;47.508;19.376;2022-12-18T03:46:42;-1.10;99.90
39095;DHT22;24840;47.508;19.376;2022-12-18T03:49:18;-1.10;99.90
39095;DHT22;24840;47.508;19.376;2022-12-18T03:52:02;-1.00;99.90
39095;DHT22;24840;47.508;19.376;2022-12-18T03:54:30;-1.00;99.90
39095;DHT22;24840;47.508;19.376;2022-12-18T03:57:08;-1.00;99.90
39095;DHT22;24840;47.508;19.376;2022-12-18T03:59:36;-1.10;99.90
39095;DHT22;24840;47.508;19.376;2022-12-18T04:02:04;-1.20;99.90
39095;DHT22;24840;47.508;19.376;2022-12-18T04:04:31;-1.20;99.90
39095;DHT22;24840;47.508;19.376;2022-12-18T04:06:58;-1.30;99.90
39095;DHT22;24840;47.508;19.376;2022-12-18T04:09:24;-1.40;99.90
39095;DHT22;24840;47.508;19.376;2022-12-18T04:11:51;-1.50;99.90
39095;DHT22;24840;47.508;19.376;2022-12-18T04:14:17;-1.60;99.90
39095;DHT22;24840;47.508;19.376;2022-12-18T04:16:43;-1.70;99.90
39095;DHT22;24840;47.508;19.376;2022-12-18T04:19:09;-1.70;99.90
39095;DHT22;24840;47.508;19.376;2022-12-18T04:21:34;-1.80;99.90
39095;DHT22;24840;47.508;19.376;2022-12-18T04:24:00;-1.80;99.90
39095;DHT22;24840;47.508;19.376;2022-12-18T04:26:26;-1.80;99.90
39095;DHT22;24840;47.508;19.376;2022-12-18T04:28:52;-1.90;99.90
39095;DHT22;24840;47.508;19.376;2022-12-18T04:31:17;-2.00;99.90
39095;DHT22;24840;47.508;19.376;2022-12-18T04:33:43;-2.20;99.90
39095;DHT22;24840;47.508;19.376;2022-12-18T04:36:09;-2.10;99.90
39095;DHT22;24840;47.508;19.376;2022-12-18T04:38:35;-2.10;99.90
39095;DHT22;24840;47.508;19.376;2022-12-18T04:41:00;-2.20;99.90
39095;DHT22;24840;47.508;19.376;2022-12-18T04:43:26;-2.20;99.90
39095;DHT22;24840;47.508;19.376;2022-12-18T04:45:52;-2.30;99.90
39095;DHT22;24840;47.508;19.376;2022-12-18T04:48:17;-2.40;99.90
39095;DHT22;24840;47.508;19.376;2022-12-18T04:50:43;-2.30;99.90
39095;DHT22;24840;47.508;19.376;2022-12-18T04:53:09;-2.40;99.90
39095;DHT22;24840;47.508;19.376;2022-12-18T04:55:35;-2.50;99.90
39095;DHT22;24840;47.508;19.376;2022-12-18T04:58:00;-2.50;99.90
39095;DHT22;24840;47.508;19.376;2022-12-18T05:00:26;-2.60;99.90
39095;DHT22;24840;47.508;19.376;2022-12-18T05:02:52;-2.60;99.90
39095;DHT22;24840;47.508;19.376;2022-12-18T05:05:17;-2.70;99.90
39095;DHT22;24840;47.508;19.376;2022-12-18T05:07:43;-2.60;99.90
39095;DHT22;24840;47.508;19.376;2022-12-18T05:10:09;-2.60;99.90
39095;DHT22;24840;47.508;19.376;2022-12-18T05:12:35;-2.50;99.90
39095;DHT22;24840;47.508;19.376;2022-12-18T05:15:21;-2.60;99.90
39095;DHT22;24840;47.508;19.376;2022-12-18T05:17:47;-2.60;99.90
39095;DHT22;24840;47.508;19.376;2022-12-18T05:20:12;-2.70;99.90
39095;DHT22;24840;47.508;19.376;2022-12-18T05:22:38;-2.80;99.90
39095;DHT22;24840;47.508;19.376;2022-12-18T05:25:04;-3.00;99.90
39095;DHT22;24840;47.508;19.376;2022-12-18T05:27:30;-3.00;99.90
39095;DHT22;24840;47.508;19.376;2022-12-18T05:29:55;-3.00;99.90
39095;DHT22;24840;47.508;19.376;2022-12-18T05:32:21;-3.00;99.90
39095;DHT22;24840;47.508;19.376;2022-12-18T05:34:47;-3.10;99.90
39095;DHT22;24840;47.508;19.376;2022-12-18T05:37:12;-3.10;99.90
39095;DHT22;24840;47.508;19.376;2022-12-18T05:39:38;-3.00;99.90
39095;DHT22;24840;47.508;19.376;2022-12-18T05:42:04;-3.20;99.90
39095;DHT22;24840;47.508;19.376;2022-12-18T05:44:30;-3.30;99.90
39095;DHT22;24840;47.508;19.376;2022-12-18T05:46:55;-3.20;99.90
39095;DHT22;24840;47.508;19.376;2022-12-18T05:49:21;-3.20;99.90
39095;DHT22;24840;47.508;19.376;2022-12-18T05:51:47;-3.30;99.90
39095;DHT22;24840;47.508;19.376;2022-12-18T05:54:12;-3.30;99.90
39095;DHT22;24840;47.508;19.376;2022-12-18T05:56:38;-3.40;99.90
39095;DHT22;24840;47.508;19.376;2022-12-18T05:59:04;-3.50;99.90
39095;DHT22;24840;47.508;19.376;2022-12-18T06:01:29;-3.60;99.90
39095;DHT22;24840;47.508;19.376;2022-12-18T06:03:55;-3.50;99.90
39095;DHT22;24840;47.508;19.376;2022-12-18T06:06:27;-3.40;99.90
39095;DHT22;24840;47.508;19.376;2022-12-18T06:08:53;-3.30;99.90
39095;DHT22;24840;47.508;19.376;2022-12-18T06:11:22;-3.40;99.90
39095;DHT22;24840;47.508;19.376;2022-12-18T06:13:56;-3.40;99.90
39095;DHT22;24840;47.508;19.376;2022-12-18T06:16:21;-3.50;99.90
39095;DHT22;24840;47.508;19.376;2022-12-18T06:18:47;-3.60;99.90
39095;DHT22;24840;47.508;19.376;2022-12-18T06:21:13;-3.80;99.90
39095;DHT22;24840;47.508;19.376;2022-12-18T06:23:39;-3.70;99.90
39095;DHT22;24840;47.508;19.376;2022-12-18T06:26:09;-3.60;99.90
39095;DHT22;24840;47.508;19.376;2022-12-18T06:28:35;-3.70;99.90
39095;DHT22;24840;47.508;19.376;2022-12-18T06:31:03;-3.80;99.90
39095;DHT22;24840;47.508;19.376;2022-12-18T06:33:29;-3.90;99.90
39095;DHT22;24840;47.508;19.376;2022-12-18T06:36:03;-3.80;99.90
39095;DHT22;24840;47.508;19.376;2022-12-18T06:38:32;-3.80;99.90
39095;DHT22;24840;47.508;19.376;2022-12-18T06:40:58;-3.90;99.90
39095;DHT22;24840;47.508;19.376;2022-12-18T06:43:23;-3.90;99.90
39095;DHT22;24840;47.508;19.376;2022-12-18T06:45:49;-3.80;99.90
39095;DHT22;24840;47.508;19.376;2022-12-18T06:48:20;-3.80;99.90
39095;DHT22;24840;47.508;19.376;2022-12-18T06:50:46;-3.90;99.90
39095;DHT22;24840;47.508;19.376;2022-12-18T06:53:12;-3.90;99.90
39095;DHT22;24840;47.508;19.376;2022-12-18T06:55:38;-3.80;99.90
39095;DHT22;24840;47.508;19.376;2022-12-18T06:58:04;-4.10;99.90
39095;DHT22;24840;47.508;19.376;2022-12-18T07:00:30;-4.20;99.90
39095;DHT22;24840;47.508;19.376;2022-12-18T07:02:55;-4.00;99.90
39095;DHT22;24840;47.508;19.376;2022-12-18T07:05:21;-4.00;99.90
39095;DHT22;24840;47.508;19.376;2022-12-18T07:07:47;-3.90;99.90
39095;DHT22;24840;47.508;19.376;2022-12-18T07:10:12;-3.80;99.90
39095;DHT22;24840;47.508;19.376;2022-12-18T07:12:38;-3.80;99.90
39095;DHT22;24840;47.508;19.376;2022-12-18T07:15:04;-3.90;99.90
39095;DHT22;24840;47.508;19.376;2022-12-18T07:17:30;-3.80;99.90
39095;DHT22;24840;47.508;19.376;2022-12-18T07:19:56;-3.80;99.90
39095;DHT22;24840;47.508;19.376;2022-12-18T07:22:22;-3.90;99.90
39095;DHT22;24840;47.508;19.376;2022-12-18T07:24:49;-3.80;99.90
39095;DHT22;24840;47.508;19.376;2022-12-18T07:27:14;-3.80;99.90
39095;DHT22;24840;47.508;19.376;2022-12-18T07:29:40;-3.70;99.90
39095;DHT22;24840;47.508;19.376;2022-12-18T07:32:06;-3.70;99.90
39095;DHT22;24840;47.508;19.376;2022-12-18T07:34:32;-3.70;99.90
39095;DHT22;24840;47.508;19.376;2022-12-18T07:36:58;-3.70;99.90
39095;DHT22;24840;47.508;19.376;2022-12-18T07:39:24;-3.70;99.90
39095;DHT22;24840;47.508;19.376;2022-12-18T07:41:49;-3.70;99.90
39095;DHT22;24840;47.508;19.376;2022-12-18T07:44:33;-3.60;99.90
39095;DHT22;24840;47.508;19.376;2022-12-18T07:46:59;-3.60;99.90
39095;DHT22;24840;47.508;19.376;2022-12-18T07:49:25;-3.60;99.90
39095;DHT22;24840;47.508;19.376;2022-12-18T07:51:51;-3.60;99.90
39095;DHT22;24840;47.508;19.376;2022-12-18T07:54:16;-3.60;99.90
39095;DHT22;24840;47.508;19.376;2022-12-18T07:56:42;-3.60;99.90
39095;DHT22;24840;47.508;19.376;2022-12-18T07:59:08;-3.60;99.90
39095;DHT22;24840;47.508;19.376;2022-12-18T08:01:33;-3.50;99.90
39095;DHT22;24840;47.508;19.376;2022-12-18T08:03:59;-3.50;99.90
39095;DHT22;24840;47.508;19.376;2022-12-18T08:06:25;-3.40;99.90
39095;DHT22;24840;47.508;19.376;2022-12-18T08:08:53;-3.20;99.90
39095;DHT22;24840;47.508;19.376;2022-12-18T08:11:19;-3.20;99.90
39095;DHT22;24840;47.508;19.376;2022-12-18T08:13:44;-3.20;99.90
39095;DHT22;24840;47.508;19.376;2022-12-18T08:16:10;-3.20;99.90
39095;DHT22;24840;47.508;19.376;2022-12-18T08:18:37;-3.10;99.90
39095;DHT22;24840;47.508;19.376;2022-12-18T08:21:13;-3.10;99.90
39095;DHT22;24840;47.508;19.376;2022-12-18T08:23:40;-3.00;99.90
39095;DHT22;24840;47.508;19.376;2022-12-18T08:26:06;-2.90;99.90
39095;DHT22;24840;47.508;19.376;2022-12-18T08:28:32;-2.70;99.90
39095;DHT22;24840;47.508;19.376;2022-12-18T08:30:58;-2.60;99.90
39095;DHT22;24840;47.508;19.376;2022-12-18T08:33:24;-2.40;99.90
39095;DHT22;24840;47.508;19.376;2022-12-18T08:35:50;-2.20;99.90
39095;DHT22;24840;47.508;19.376;2022-12-18T08:38:15;-2.10;99.90
39095;DHT22;24840;47.508;19.376;2022-12-18T08:40:41;-1.90;99.90
39095;DHT22;24840;47.508;19.376;2022-12-18T08:43:09;-1.60;99.90
39095;DHT22;24840;47.508;19.376;2022-12-18T08:45:54;-1.40;99.90
39095;DHT22;24840;47.508;19.376;2022-12-18T08:48:20;-0.60;99.90
39095;DHT22;24840;47.508;19.376;2022-12-18T08:50:56;-0.60;99.90
39095;DHT22;24840;47.508;19.376;2022-12-18T08:53:24;-0.30;99.90
39095;DHT22;24840;47.508;19.376;2022-12-18T08:55:50;0.10;99.90
39095;DHT22;24840;47.508;19.376;2022-12-18T08:58:15;0.20;99.90
39095;DHT22;24840;47.508;19.376;2022-12-18T09:00:41;0.30;99.90
39095;DHT22;24840;47.508;19.376;2022-12-18T09:03:17;0.50;99.90
39095;DHT22;24840;47.508;19.376;2022-12-18T09:05:45;0.50;99.90
39095;DHT22;24840;47.508;19.376;2022-12-18T09:08:11;0.70;99.90
39095;DHT22;24840;47.508;19.376;2022-12-18T09:10:48;0.90;99.90
39095;DHT22;24840;47.508;19.376;2022-12-18T09:13:14;1.30;99.90
39095;DHT22;24840;47.508;19.376;2022-12-18T09:15:46;1.40;99.90
39095;DHT22;24840;47.508;19.376;2022-12-18T09:18:13;1.50;99.90
39095;DHT22;24840;47.508;19.376;2022-12-18T09:20:40;1.80;99.90
39095;DHT22;24840;47.508;19.376;2022-12-18T09:23:06;2.00;99.90
39095;DHT22;24840;47.508;19.376;2022-12-18T09:25:32;2.10;99.90
39095;DHT22;24840;47.508;19.376;2022-12-18T09:28:12;2.40;99.90
39095;DHT22;24840;47.508;19.376;2022-12-18T09:30:44;2.30;99.90
39095;DHT22;24840;47.508;19.376;2022-12-18T09:33:10;2.30;99.90
39095;DHT22;24840;47.508;19.376;2022-12-18T09:35:37;2.60;99.90
39095;DHT22;24840;47.508;19.376;2022-12-18T09:38:06;3.00;99.90
39095;DHT22;24840;47.508;19.376;2022-12-18T09:40:40;3.30;99.90
39095;DHT22;24840;47.508;19.376;2022-12-18T09:43:18;3.60;99.90
39095;DHT22;24840;47.508;19.376;2022-12-18T09:45:58;3.40;99.90
39095;DHT22;24840;47.508;19.376;2022-12-18T09:48:32;3.60;99.90
39095;DHT22;24840;47.508;19.376;2022-12-18T09:51:04;3.90;99.90
39095;DHT22;24840;47.508;19.376;2022-12-18T09:53:35;3.80;99.90
39095;DHT22;24840;47.508;19.376;2022-12-18T09:56:04;4.10;99.90
39095;DHT22;24840;47.508;19.376;2022-12-18T09:58:39;4.70;99.90
39095;DHT22;24840;47.508;19.376;2022-12-18T10:01:12;4.30;99.90
39095;DHT22;24840;47.508;19.376;2022-12-18T10:03:39;4.70;99.90
39095;DHT22;24840;47.508;19.376;2022-12-18T10:06:18;4.80;99.90
39095;DHT22;24840;47.508;19.376;2022-12-18T10:12:04;5.00;99.90
39095;DHT22;24840;47.508;19.376;2022-12-18T10:15:14;4.90;99.90
39095;DHT22;24840;47.508;19.376;2022-12-18T10:20:16;5.30;99.90
39095;DHT22;24840;47.508;19.376;2022-12-18T10:26:03;5.20;99.80
39095;DHT22;24840;47.508;19.376;2022-12-18T10:28:31;6.10;99.90
39095;DHT22;24840;47.508;19.376;2022-12-18T10:30:57;6.00;99.90
39095;DHT22;24840;47.508;19.376;2022-12-18T10:33:27;6.00;99.90
39095;DHT22;24840;47.508;19.376;2022-12-18T10:35:54;5.80;99.80
39095;DHT22;24840;47.508;19.376;2022-12-18T10:38:28;6.20;99.60
39095;DHT22;24840;47.508;19.376;2022-12-18T10:40:55;5.90;99.20
39095;DHT22;24840;47.508;19.376;2022-12-18T10:43:33;5.80;97.70
39095;DHT22;24840;47.508;19.376;2022-12-18T10:48:27;6.40;97.80
39095;DHT22;24840;47.508;19.376;2022-12-18T10:50:53;6.20;96.60
39095;DHT22;24840;47.508;19.376;2022-12-18T10:53:28;6.20;95.60
39095;DHT22;24840;47.508;19.376;2022-12-18T10:55:57;6.30;94.40
39095;DHT22;24840;47.508;19.376;2022-12-18T10:58:31;6.50;96.40
39095;DHT22;24840;47.508;19.376;2022-12-18T11:01:18;5.90;93.80
39095;DHT22;24840;47.508;19.376;2022-12-18T11:06:18;6.70;94.00
39095;DHT22;24840;47.508;19.376;2022-12-18T11:09:04;6.90;96.20
39095;DHT22;24840;47.508;19.376;2022-12-18T11:11:32;6.40;93.50
39095;DHT22;24840;47.508;19.376;2022-12-18T11:14:15;6.40;93.70
39095;DHT22;24840;47.508;19.376;2022-12-18T11:16:46;6.90;94.90
39095;DHT22;24840;47.508;19.376;2022-12-18T11:19:31;6.70;91.10
39095;DHT22;24840;47.508;19.376;2022-12-18T11:21:58;6.30;92.00
39095;DHT22;24840;47.508;19.376;2022-12-18T11:24:33;6.70;93.80
39095;DHT22;24840;47.508;19.376;2022-12-18T11:27:06;7.40;92.90
39095;DHT22;24840;47.508;19.376;2022-12-18T11:29:41;7.20;92.60
39095;DHT22;24840;47.508;19.376;2022-12-18T11:37:45;8.00;92.20
39095;DHT22;24840;47.508;19.376;2022-12-18T11:40:19;7.40;90.50
39095;DHT22;24840;47.508;19.376;2022-12-18T11:43:37;6.40;91.00
39095;DHT22;24840;47.508;19.376;2022-12-18T11:46:12;7.20;92.70
39095;DHT22;24840;47.508;19.376;2022-12-18T11:49:39;7.20;89.80
39095;DHT22;24840;47.508;19.376;2022-12-18T11:51:43;7.00;90.60
39095;DHT22;24840;47.508;19.376;2022-12-18T11:54:14;7.80;90.30
39095;DHT22;24840;47.508;19.376;2022-12-18T11:56:56;7.50;90.90
39095;DHT22;24840;47.508;19.376;2022-12-18T12:02:33;7.30;91.20
39095;DHT22;24840;47.508;19.376;2022-12-18T12:05:15;7.50;91.40
39095;DHT22;24840;47.508;19.376;2022-12-18T12:10:48;7.80;91.30
39095;DHT22;24840;47.508;19.376;2022-12-18T12:21:41;8.10;90.00
39095;DHT22;24840;47.508;19.376;2022-12-18T12:32:17;7.70;90.40
39095;DHT22;24840;47.508;19.376;2022-12-18T12:35:08;7.80;91.50
39095;DHT22;24840;47.508;19.376;2022-12-18T12:40:28;7.60;88.60
39095;DHT22;24840;47.508;19.376;2022-12-18T12:45:54;7.90;88.30
39095;DHT22;24840;47.508;19.376;2022-12-18T12:48:48;7.80;88.70
39095;DHT22;24840;47.508;19.376;2022-12-18T12:51:21;7.40;86.50
39095;DHT22;24840;47.508;19.376;2022-12-18T12:53:48;7.30;88.20
39095;DHT22;24840;47.508;19.376;2022-12-18T12:56:16;6.90;88.90
39095;DHT22;24840;47.508;19.376;2022-12-18T13:04:51;6.50;86.30
39095;DHT22;24840;47.508;19.376;2022-12-18T13:07:28;6.50;90.10
39095;DHT22;24840;47.508;19.376;2022-12-18T13:20:46;6.50;87.60
39095;DHT22;24840;47.508;19.376;2022-12-18T13:34:22;5.90;93.10
39095;DHT22;24840;47.508;19.376;2022-12-18T13:36:49;6.10;92.70
39095;DHT22;24840;47.508;19.376;2022-12-18T13:41:52;5.60;93.60
39095;DHT22;24840;47.508;19.376;2022-12-18T13:47:03;5.50;93.30
39095;DHT22;24840;47.508;19.376;2022-12-18T13:52:01;4.90;96.30
39095;DHT22;24840;47.508;19.376;2022-12-18T13:57:02;4.90;97.40
39095;DHT22;24840;47.508;19.376;2022-12-18T13:59:37;4.50;98.00
39095;DHT22;24840;47.508;19.376;2022-12-18T14:02:13;4.20;98.30
39095;DHT22;24840;47.508;19.376;2022-12-18T14:04:39;3.90;97.70
39095;DHT22;24840;47.508;19.376;2022-12-18T14:07:06;3.90;98.50
39095;DHT22;24840;47.508;19.376;2022-12-18T14:09:39;3.60;99.50
39095;DHT22;24840;47.508;19.376;2022-12-18T14:12:06;3.50;99.90
39095;DHT22;24840;47.508;19.376;2022-12-18T14:14:58;3.30;99.90
39095;DHT22;24840;47.508;19.376;2022-12-18T14:17:25;3.30;99.90
39095;DHT22;24840;47.508;19.376;2022-12-18T14:19:51;3.00;99.90
39095;DHT22;24840;47.508;19.376;2022-12-18T14:22:21;2.80;99.90
39095;DHT22;24840;47.508;19.376;2022-12-18T14:27:38;2.70;99.90
39095;DHT22;24840;47.508;19.376;2022-12-18T14:30:25;2.50;99.90
39095;DHT22;24840;47.508;19.376;2022-12-18T14:33:05;2.50;99.90
39095;DHT22;24840;47.508;19.376;2022-12-18T14:35:33;2.40;99.90
39095;DHT22;24840;47.508;19.376;2022-12-18T14:40:42;2.20;99.90
39095;DHT22;24840;47.508;19.376;2022-12-18T14:43:12;2.00;99.90
39095;DHT22;24840;47.508;19.376;2022-12-18T14:45:39;2.10;99.90
39095;DHT22;24840;47.508;19.376;2022-12-18T14:48:08;2.00;99.90
39095;DHT22;24840;47.508;19.376;2022-12-18T14:50:34;2.00;99.90
39095;DHT22;24840;47.508;19.376;2022-12-18T14:53:00;2.10;99.90
39095;DHT22;24840;47.508;19.376;2022-12-18T14:55:26;2.00;99.90
39095;DHT22;24840;47.508;19.376;2022-12-18T14:57:54;1.90;99.90
39095;DHT22;24840;47.508;19.376;2022-12-18T15:00:24;1.90;99.90
39095;DHT22;24840;47.508;19.376;2022-12-18T15:02:55;1.70;99.90
39095;DHT22;24840;47.508;19.376;2022-12-18T15:07:57;1.70;99.90
39095;DHT22;24840;47.508;19.376;2022-12-18T15:18:00;1.30;99.90
39095;DHT22;24840;47.508;19.376;2022-12-18T15:20:27;1.10;99.90
39095;DHT22;24840;47.508;19.376;2022-12-18T15:22:53;1.20;99.90
39095;DHT22;24840;47.508;19.376;2022-12-18T15:25:34;0.90;99.90
39095;DHT22;24840;47.508;19.376;2022-12-18T15:28:02;0.90;99.90
39095;DHT22;24840;47.508;19.376;2022-12-18T15:30:28;0.70;99.90
39095;DHT22;24840;47.508;19.376;2022-12-18T15:33:22;0.60;99.90
39095;DHT22;24840;47.508;19.376;2022-12-18T15:35:56;0.60;99.90
39095;DHT22;24840;47.508;19.376;2022-12-18T15:38:22;0.60;99.90
39095;DHT22;24840;47.508;19.376;2022-12-18T15:40:48;0.40;99.90
39095;DHT22;24840;47.508;19.376;2022-12-18T15:43:13;0.20;99.90
39095;DHT22;24840;47.508;19.376;2022-12-18T15:45:57;0.10;99.90
39095;DHT22;24840;47.508;19.376;2022-12-18T15:48:23;0.20;99.90
39095;DHT22;24840;47.508;19.376;2022-12-18T15:50:51;0.10;99.90
39095;DHT22;24840;47.508;19.376;2022-12-18T15:53:18;0.10;99.90
39095;DHT22;24840;47.508;19.376;2022-12-18T15:55:44;0.10;99.90
39095;DHT22;24840;47.508;19.376;2022-12-18T15:58:28;0.00;99.90
39095;DHT22;24840;47.508;19.376;2022-12-18T16:00:55;-0.10;99.90
39095;DHT22;24840;47.508;19.376;2022-12-18T16:03:23;-0.10;99.90
39095;DHT22;24840;47.508;19.376;2022-12-18T16:05:49;-0.20;99.90
39095;DHT22;24840;47.508;19.376;2022-12-18T16:08:15;-0.40;99.90
39095;DHT22;24840;47.508;19.376;2022-12-18T16:10:41;-0.40;99.90
39095;DHT22;24840;47.508;19.376;2022-12-18T16:13:10;-0.60;99.90
39095;DHT22;24840;47.508;19.376;2022-12-18T16:15:36;-0.60;99.90
39095;DHT22;24840;47.508;19.376;2022-12-18T16:18:01;-0.70;99.90
39095;DHT22;24840;47.508;19.376;2022-12-18T16:20:27;-0.70;99.90
39095;DHT22;24840;47.508;19.376;2022-12-18T16:22:53;-0.60;99.90
39095;DHT22;24840;47.508;19.376;2022-12-18T16:25:24;-0.80;99.90
39095;DHT22;24840;47.508;19.376;2022-12-18T16:27:51;-0.90;99.90
39095;DHT22;24840;47.508;19.376;2022-12-18T16:30:21;-0.70;99.90
39095;DHT22;24840;47.508;19.376;2022-12-18T16:32:47;-0.80;99.90
39095;DHT22;24840;47.508;19.376;2022-12-18T16:35:15;-1.00;99.90
39095;DHT22;24840;47.508;19.376;2022-12-18T16:37:41;-1.00;99.90
39095;DHT22;24840;47.508;19.376;2022-12-18T16:40:08;-0.90;99.90
39095;DHT22;24840;47.508;19.376;2022-12-18T16:42:36;-0.90;99.90
39095;DHT22;24840;47.508;19.376;2022-12-18T16:45:03;-1.00;99.90
39095;DHT22;24840;47.508;19.376;2022-12-18T16:47:29;-1.10;99.90
39095;DHT22;24840;47.508;19.376;2022-12-18T16:49:55;-1.10;99.90
39095;DHT22;24840;47.508;19.376;2022-12-18T16:52:21;-1.00;99.90
39095;DHT22;24840;47.508;19.376;2022-12-18T16:54:47;-1.10;99.90
39095;DHT22;24840;47.508;19.376;2022-12-18T16:57:14;-1.10;99.90
39095;DHT22;24840;47.508;19.376;2022-12-18T16:59:41;-1.10;99.90
39095;DHT22;24840;47.508;19.376;2022-12-18T17:02:13;-1.30;99.90
39095;DHT22;24840;47.508;19.376;2022-12-18T17:04:40;-1.30;99.90
39095;DHT22;24840;47.508;19.376;2022-12-18T17:07:06;-1.30;99.90
39095;DHT22;24840;47.508;19.376;2022-12-18T17:09:32;-1.20;99.90
39095;DHT22;24840;47.508;19.376;2022-12-18T17:11:58;-1.20;99.90
39095;DHT22;24840;47.508;19.376;2022-12-18T17:14:25;-1.20;99.90
39095;DHT22;24840;47.508;19.376;2022-12-18T17:16:52;-1.40;99.90
39095;DHT22;24840;47.508;19.376;2022-12-18T17:19:18;-1.40;99.90
39095;DHT22;24840;47.508;19.376;2022-12-18T17:21:47;-1.40;99.90
39095;DHT22;24840;47.508;19.376;2022-12-18T17:24:13;-1.60;99.90
39095;DHT22;24840;47.508;19.376;2022-12-18T17:26:39;-1.60;99.90
39095;DHT22;24840;47.508;19.376;2022-12-18T17:29:05;-1.60;99.90
39095;DHT22;24840;47.508;19.376;2022-12-18T17:31:32;-1.60;99.90
39095;DHT22;24840;47.508;19.376;2022-12-18T17:34:00;-1.70;99.90
39095;DHT22;24840;47.508;19.376;2022-12-18T17:36:26;-1.80;99.90
39095;DHT22;24840;47.508;19.376;2022-12-18T17:39:00;-1.80;99.90
39095;DHT22;24840;47.508;19.376;2022-12-18T17:41:43;-1.90;99.90